Flight Track Log - Related Links

Times and Time Zones

All times are in EDT time to prevent confusion due to time zone crossing. See the SWA1435 flight status page for this flight to view local times or setup timezone preferences in your user account.

Time Position Orientation Groundspeed Altitude Reporting Facility
EDT Latitude Longitude Course Direction KTS MPH feet Rate Location/Type
Mon 07:06:42 32.8172 -96.8078 83° East 182 209 2,600  Level Fort Worth Center
Mon 07:07:42 32.8233 -96.7483 83° East 200 230 5,200 2,950 Climbing Fort Worth Center
Mon 07:08:42 32.9025 -96.7453 North 188 216 8,500 2,900 Climbing Fort Worth Center
Mon 07:09:42 32.9717 -96.7572 352° North 237 273 11,000 2,650 Climbing Fort Worth Center
Mon 07:10:42 33.0656 -96.7689 354° North 296 341 13,800 2,900 Climbing Fort Worth Center
Mon 07:11:42 33.1492 -96.7808 353° North 326 375 16,800 3,250 Climbing Fort Worth Center
Mon 07:12:42 33.2597 -96.7972 353° North 349 402 20,300 3,550 Climbing Fort Worth Center
Mon 07:13:42 33.3600 -96.8117 353° North 359 413 23,900 3,200 Climbing Fort Worth Center
Mon 07:14:42 33.4622 -96.8133 359° North 364 419 26,700 2,300 Climbing Fort Worth Center
Mon 07:15:42 33.5519 -96.7628 25° Northeast 372 428 28,500 1,950 Climbing Fort Worth Center
Mon 07:16:42 33.6558 -96.6947 29° Northeast 403 464 30,600 2,050 Climbing Fort Worth Center
Mon 07:17:42 33.7597 -96.6264 29° Northeast 408 470 32,600 1,900 Climbing Fort Worth Center
Mon 07:18:42 33.8658 -96.5581 28° Northeast 416 479 34,400 1,500 Climbing Fort Worth Center
Mon 07:19:42 33.9758 -96.4892 27° Northeast 435 501 35,600 1,200 Climbing Fort Worth Center
Mon 07:20:42 34.0839 -96.4131 30° Northeast 440 506 36,800 700 Climbing Fort Worth Center
Mon 07:21:42 34.1894 -96.3264 34° Northeast 445 512 37,000 100 Climbing Fort Worth Center
Mon 07:22:42 34.3014 -96.2344 34° Northeast 462 532 37,000  Level Fort Worth Center
Mon 07:23:42 34.4111 -96.1447 34° Northeast 473 544 37,000  Level Fort Worth Center
Mon 07:24:42 34.5208 -96.0525 35° Northeast 479 551 37,000  Level Fort Worth Center
Mon 07:25:42 34.6283 -95.9650 34° Northeast 479 551 37,000  Level Fort Worth Center
Mon 07:26:42 34.7356 -95.8747 35° Northeast 474 545 37,000  Level Fort Worth Center
Mon 07:27:42 34.8431 -95.7867 34° Northeast 468 539 37,000  Level Fort Worth Center
Mon 07:28:42 34.9503 -95.6886 37° Northeast 467 537 37,000  Level Fort Worth Center
Mon 07:29:42 35.0511 -95.5950 37° Northeast 462 532 37,000  Level Fort Worth Center
Mon 07:30:42 35.1519 -95.5017 37° Northeast 456 525 37,000  Level Fort Worth Center
Mon 07:31:42 35.2547 -95.4053 37° Northeast 456 525 37,000  Level Fort Worth Center
Mon 07:32:57 35.3922 -95.2725 38° Northeast 454 522 37,000  Level Memphis Center
Mon 07:33:57 35.4986 -95.1717 38° Northeast 464 534 37,000  Level Memphis Center
Mon 07:34:57 35.6025 -95.0706 38° Northeast 471 542 37,000  Level Memphis Center
Mon 07:35:57 35.7042 -94.9714 38° Northeast 471 542 37,000  Level Memphis Center
Mon 07:36:57 35.8058 -94.8747 38° Northeast 466 536 37,000  Level Memphis Center
Mon 07:37:57 35.9075 -94.7728 39° Northeast 466 536 37,000  Level Memphis Center
Mon 07:38:57 36.0086 -94.6781 37° Northeast 466 536 37,000  Level Memphis Center
Mon 07:39:57 36.1100 -94.5806 38° Northeast 461 531 37,000  Level Memphis Center
Mon 07:42:02 36.3075 -94.3833 39° Northeast 456 525 37,000  Level Kansas City Center
Mon 07:43:05 36.4075 -94.2844 39° Northeast 457 526 37,000  Level Kansas City Center
Mon 07:44:06 36.5092 -94.1858 38° Northeast 462 532 37,000  Level Kansas City Center
Mon 07:45:07 36.6108 -94.0856 38° Northeast 465 535 37,000  Level Kansas City Center
Mon 07:46:08 36.7106 -93.9850 39° Northeast 463 533 37,000  Level Kansas City Center
Mon 07:47:09 36.8131 -93.8828 39° Northeast 468 539 37,000  Level Kansas City Center
Mon 07:48:10 36.9150 -93.7817 38° Northeast 468 539 37,000  Level Kansas City Center
Mon 07:49:11 37.0153 -93.6814 39° Northeast 468 539 37,000  Level Kansas City Center
Mon 07:50:11 37.1381 -93.5578 39° Northeast 469 540 37,000  Level Kansas City Center
Mon 07:51:12 37.2389 -93.4547 39° Northeast 468 539 37,000  Level Kansas City Center
Mon 07:52:13 37.3400 -93.3542 38° Northeast 463 533 37,000 -393 Level Kansas City Center
Mon 07:53:14 37.4364 -93.2444 42° Northeast 464 534 36,200 -878 Descending Kansas City Center
Mon 07:54:16 37.5308 -93.1350 43° Northeast 463 533 35,200 -934 Descending Kansas City Center
Mon 07:55:16 37.6261 -93.0225 43° Northeast 464 534 34,300 -942 Descending Kansas City Center
Mon 07:56:17 37.7208 -92.9108 43° Northeast 463 533 33,300 -984 Descending Kansas City Center
Mon 07:57:18 37.8136 -92.8003 43° Northeast 456 525 32,300 -976 Descending Kansas City Center
Mon 07:58:20 37.9089 -92.6867 43° Northeast 458 527 31,300 -1,000 Descending Kansas City Center
Mon 07:59:18 37.9869 -92.5567 53° Northeast 463 533 30,300 -1,033 Descending Kansas City Center
Mon 08:00:22 38.0508 -92.4228 59° Northeast 453 521 29,200 -1,008 Descending Kansas City Center
Mon 08:01:23 38.1214 -92.2931 55° Northeast 450 518 28,200 -992 Descending Kansas City Center
Mon 08:02:23 38.1944 -92.1544 56° Northeast 439 505 27,200 -992 Descending Kansas City Center
Mon 08:03:24 38.2614 -92.0272 56° Northeast 432 497 26,200 -1,122 Descending Kansas City Center
Mon 08:04:26 38.3267 -91.9036 56° Northeast 422 486 24,900 -1,377 Descending Kansas City Center
Mon 08:05:26 38.3892 -91.7858 56° Northeast 407 468 23,400 -2,132 Descending Kansas City Center
Mon 08:06:27 38.4511 -91.6681 56° Northeast 399 459 20,600 -2,410 Descending Kansas City Center
Mon 08:07:28 38.5117 -91.5525 56° Northeast 393 452 18,500 -2,066 Descending Kansas City Center
Mon 08:08:29 38.5681 -91.4428 57° Northeast 376 433 16,400 -2,293 Descending Kansas City Center
Mon 08:09:31 38.6344 -91.2667 64° Northeast 369 425 13,800 -2,415 Descending FAA TRACON SMA TRACON (SMA)
Mon 08:09:51 38.6503 -91.2336 58° Northeast 361 415 13,100 -2,250 Descending FAA TRACON SMA TRACON (SMA)
Mon 08:10:11 38.6711 -91.1936 56° Northeast 355 409 12,300 -2,100 Descending FAA TRACON SMA TRACON (SMA)
Mon 08:10:31 38.6850 -91.1603 62° Northeast 351 404 11,700 -1,800 Descending FAA TRACON SMA TRACON (SMA)
Mon 08:10:51 38.6933 -91.1244 73° East 347 399 11,100 -2,100 Descending FAA TRACON SMA TRACON (SMA)
Mon 08:11:11 38.6936 -91.0781 90° East 339 390 10,300 -1,500 Descending FAA TRACON SMA TRACON (SMA)
Mon 08:11:31 38.6994 -91.0431 78° East 332 382 10,100 -600 Descending FAA TRACON SMA TRACON (SMA)
Mon 08:11:51 38.7094 -91.0119 68° East 319 367 9,900 -900 Descending FAA TRACON SMA TRACON (SMA)
Mon 08:12:11 38.7258 -90.9767 59° Northeast 304 350 9,500 -1,350 Descending FAA TRACON SMA TRACON (SMA)
Mon 08:12:31 38.7369 -90.9483 63° Northeast 294 338 9,000 -1,500 Descending FAA TRACON SMA TRACON (SMA)
Mon 08:12:51 38.7497 -90.9208 59° Northeast 293 337 8,500 -1,385 Descending FAA TRACON SMA TRACON (SMA)
Mon 08:13:10 38.7644 -90.8869 61° Northeast 287 330 8,100 -1,050 Descending FAA TRACON SMA TRACON (SMA)
Mon 08:13:31 38.7767 -90.8606 59° Northeast 284 327 7,800 -878 Descending FAA TRACON SMA TRACON (SMA)
Mon 08:13:51 38.7886 -90.8339 60° Northeast 283 326 7,500 -1,050 Descending FAA TRACON SMA TRACON (SMA)
Mon 08:14:11 38.8011 -90.7994 65° Northeast 281 323 7,100 -1,200 Descending FAA TRACON SMA TRACON (SMA)
Mon 08:14:31 38.8100 -90.7711 68° East 278 320 6,700 -1,350 Descending FAA TRACON SMA TRACON (SMA)
Mon 08:14:51 38.8186 -90.7425 69° East 280 322 6,200 -1,200 Descending FAA TRACON SMA TRACON (SMA)
Mon 08:15:11 38.8292 -90.7072 69° East 278 320 5,900 -732 Descending FAA TRACON SMA TRACON (SMA)
Mon 08:15:32 38.8367 -90.6806 70° East 267 307 5,700 -600 Descending FAA TRACON SMA TRACON (SMA)
Mon 08:15:51 38.8442 -90.6547 70° East 257 296 5,500 -615 Descending FAA TRACON SMA TRACON (SMA)
Mon 08:16:11 38.8492 -90.6231 79° East 248 285 5,300 -615 Descending FAA TRACON SMA TRACON (SMA)
Mon 08:16:30 38.8467 -90.5978 97° East 234 269 5,100 -750 Descending FAA TRACON SMA TRACON (SMA)
Mon 08:16:51 38.8439 -90.5731 98° East 227 261 4,800 -878 Descending FAA TRACON SMA TRACON (SMA)
Mon 08:17:11 38.8403 -90.5431 99° East 222 255 4,500 -750 Descending FAA TRACON SMA TRACON (SMA)
Mon 08:17:31 38.8356 -90.5203 105° East 217 250 4,300 -1,200 Descending FAA TRACON SMA TRACON (SMA)
Mon 08:17:51 38.8303 -90.4983 107° East 212 244 3,700 -1,902 Descending FAA TRACON SMA TRACON (SMA)
Mon 08:18:12 38.8217 -90.4719 113° Southeast 211 243 3,000 -1,317 Descending FAA TRACON SMA TRACON (SMA)
Mon 08:18:32 38.8131 -90.4528 120° Southeast 204 235 2,800 -615 Descending FAA TRACON SMA TRACON (SMA)
Mon 08:18:51 38.8050 -90.4356 121° Southeast 189 217 2,600 -923 Descending FAA TRACON SMA TRACON (SMA)
Mon 08:19:11 38.7953 -90.4167 123° Southeast 169 194 2,200 -1,024 Descending FAA TRACON SMA TRACON (SMA)
Mon 08:19:32 38.7875 -90.4025 125° Southeast 158 182 1,900 -732 Descending FAA TRACON SMA TRACON (SMA)
Mon 08:19:52 38.7811 -90.3886 121° Southeast 150 173 1,700 -769 Descending FAA TRACON SMA TRACON (SMA)
Mon 08:20:11 38.7736 -90.3731 122° Southeast 135 155 1,400 -769 Descending FAA TRACON SMA TRACON (SMA)
Mon 08:20:31 38.7675 -90.3614 124° Southeast 130 150 1,200 -600 Descending FAA TRACON SMA TRACON (SMA)
Mon 08:20:51 38.7617 -90.3500 123° Southeast 126 145 1,000 -585 Descending FAA TRACON SMA TRACON (SMA)
Mon 08:21:12 38.7544 -90.3358 123° Southeast 120 138 800 -585 Descending FAA TRACON SMA TRACON (SMA)
Mon 08:21:32 38.7489 -90.3247 123° Southeast 122 140 600 -600 Descending FAA TRACON SMA TRACON (SMA)
Mon 08:23:00 38.7333 -90.3667 333° Northwest  Level FlightAware Approximate
Mon 08:30:00 38.7487 -90.3700 333° Northwest  Level Estimated

Login

Don't have an account? Register now (free) for customized features, flight alerts, and more!